createdAt,value
2019-04-23T00:08:07.561Z,42.40
2019-04-23T00:13:02.314Z,42.66
2019-04-23T00:18:07.873Z,42.78
2019-04-23T00:23:10.947Z,42.90
2019-04-23T00:33:18.882Z,43.27
2019-04-23T00:48:36.390Z,43.55
2019-04-23T00:53:26.974Z,43.71
2019-04-23T00:58:41.197Z,43.89
2019-04-23T01:03:29.464Z,44.19
2019-04-23T01:08:55.130Z,44.32
2019-04-23T01:24:06.371Z,44.63
2019-04-23T01:29:30.528Z,44.76
2019-04-23T01:34:42.324Z,44.94
2019-04-23T01:39:27.477Z,45.12
2019-04-23T01:44:42.477Z,45.33
2019-04-23T01:49:57.682Z,45.48
2019-04-23T01:54:48.295Z,45.71
2019-04-23T01:59:55.158Z,45.87
2019-04-23T02:05:02.952Z,46.02
2019-04-23T02:15:05.127Z,46.25
2019-04-23T02:20:13.582Z,46.47
2019-04-23T02:25:34.927Z,46.67
2019-04-23T02:40:49.538Z,46.92
2019-04-23T02:45:48.852Z,47.06
2019-04-23T03:06:00.984Z,47.45
2019-04-23T03:27:08.119Z,48.14
2019-04-23T03:42:11.976Z,48.15
2019-04-23T03:47:18.844Z,48.27
2019-04-23T03:52:27.409Z,48.38
2019-04-23T04:02:39.851Z,49.07
2019-04-23T04:07:53.503Z,49.05
2019-04-23T04:12:39.990Z,49.06
2019-04-23T04:33:00.580Z,49.20
2019-04-23T04:37:58.843Z,49.16
2019-04-23T04:43:11.264Z,49.24
2019-04-23T04:53:12.710Z,49.31
2019-04-23T04:58:00.559Z,49.36
2019-04-23T05:08:13.966Z,49.35
2019-04-23T05:13:30.231Z,49.37
2019-04-23T05:23:42.744Z,49.36
2019-04-23T05:28:55.499Z,49.35
2019-04-23T05:33:57.086Z,49.29
2019-04-23T05:43:52.547Z,49.39
2019-04-23T05:48:59.853Z,49.45
2019-04-23T05:53:58.383Z,49.34
2019-04-23T05:59:09.691Z,49.23
2019-04-23T06:04:17.573Z,49.22
2019-04-23T06:09:14.090Z,49.16
2019-04-23T06:19:18.912Z,49.07
2019-04-23T06:24:29.338Z,48.97
2019-04-23T06:29:33.575Z,48.82
2019-04-23T06:34:30.676Z,48.83
2019-04-23T06:39:36.817Z,48.67
2019-04-23T06:44:45.742Z,48.59
2019-04-23T06:54:55.741Z,48.41
2019-04-23T07:00:08.375Z,48.35
2019-04-23T07:09:58.275Z,48.23
2019-04-23T07:15:13.286Z,48.14
2019-04-23T07:20:06.732Z,48.07
2019-04-23T07:25:14.225Z,48.00
2019-04-23T07:30:13.591Z,47.96
2019-04-23T07:40:40.604Z,47.98
2019-04-23T07:46:10.392Z,47.92
2019-04-23T07:51:00.479Z,47.87
2019-04-23T07:56:11.523Z,47.84
2019-04-23T08:01:09.714Z,47.81
2019-04-23T08:06:15.275Z,47.76
2019-04-23T08:21:29.094Z,47.70
2019-04-23T08:27:08.281Z,47.63
2019-04-23T08:32:10.625Z,47.54
2019-04-23T08:37:08.971Z,47.51
2019-04-23T08:47:21.739Z,47.41
2019-04-23T09:02:36.011Z,47.19
2019-04-23T09:07:43.659Z,47.08
2019-04-23T09:12:38.540Z,47.04
2019-04-23T09:17:44.385Z,47.03
2019-04-23T09:22:38.891Z,47.00
2019-04-23T09:27:44.225Z,46.98
2019-04-23T09:32:54.470Z,46.90
2019-04-23T09:38:21.896Z,46.81
2019-04-23T09:43:50.148Z,46.68
2019-04-23T09:48:58.180Z,46.65
2019-04-23T09:53:51.309Z,46.54
2019-04-23T09:59:01.234Z,46.40
2019-04-23T10:03:49.355Z,46.24
2019-04-23T10:08:44.971Z,45.97
2019-04-23T10:13:42.789Z,45.79
2019-04-23T10:18:44.951Z,45.66
2019-04-23T10:23:47.504Z,45.77
2019-04-23T10:28:56.211Z,45.96
2019-04-23T10:33:58.124Z,46.10
2019-04-23T10:39:07.436Z,46.18
2019-04-23T10:44:17.232Z,46.19
2019-04-23T10:50:17.317Z,46.07
2019-04-23T10:55:06.124Z,45.98
2019-04-23T11:00:13.793Z,45.75
2019-04-23T11:10:21.244Z,45.24
2019-04-23T11:15:53.759Z,45.27
2019-04-23T11:20:30.378Z,45.26
2019-04-23T11:30:41.177Z,44.96
2019-04-23T11:35:47.675Z,45.05
2019-04-23T11:40:37.086Z,45.34
2019-04-23T11:55:52.063Z,44.95
2019-04-23T12:01:37.108Z,45.04
2019-04-23T12:06:47.774Z,45.13
2019-04-23T12:11:53.473Z,43.21
2019-04-23T12:17:08.016Z,42.76
2019-04-23T12:22:15.247Z,42.70
2019-04-23T12:27:07.993Z,43.95
2019-04-23T12:37:41.045Z,44.85
2019-04-23T12:47:50.486Z,44.95
2019-04-23T12:52:47.540Z,44.57
2019-04-23T12:57:52.214Z,43.10
2019-04-23T13:02:59.388Z,43.34
2019-04-23T13:18:03.839Z,43.91
2019-04-23T13:23:15.231Z,43.09
2019-04-23T13:28:13.893Z,43.43
2019-04-23T13:43:36.278Z,40.70
2019-04-23T13:48:19.907Z,40.70
2019-04-23T14:03:40.661Z,41.85
2019-04-23T14:18:57.989Z,42.75
2019-04-23T14:28:52.654Z,43.20
2019-04-23T14:34:05.058Z,42.84
2019-04-23T14:39:21.559Z,43.10
2019-04-23T14:44:12.898Z,42.70
2019-04-23T14:49:27.381Z,42.52
2019-04-23T14:55:04.069Z,42.37
2019-04-23T14:59:32.204Z,42.29
2019-04-23T15:04:41.169Z,42.17
2019-04-23T15:15:02.684Z,42.09
2019-04-23T15:20:03.347Z,42.07
2019-04-23T15:29:59.443Z,41.94
2019-04-23T15:35:25.051Z,41.57
2019-04-23T15:45:19.351Z,40.54
2019-04-23T15:50:22.597Z,39.90
2019-04-23T15:55:20.948Z,39.66
2019-04-23T16:00:24.948Z,39.51
2019-04-23T16:05:05.441Z,39.37
2019-04-23T16:10:45.877Z,39.65
2019-04-23T16:15:45.440Z,40.07
2019-04-23T16:20:58.608Z,40.07
2019-04-23T16:25:55.591Z,40.25
2019-04-23T16:31:00.811Z,40.08
2019-04-23T16:36:21.777Z,40.12
2019-04-23T16:40:57.268Z,40.82
2019-04-23T16:46:07.462Z,41.31
2019-04-23T16:51:24.962Z,41.42
2019-04-23T17:06:18.645Z,42.05
2019-04-23T17:11:26.961Z,42.27
2019-04-23T17:16:28.564Z,42.72
2019-04-23T17:21:32.412Z,42.78
2019-04-23T17:31:40.548Z,43.14
2019-04-23T17:42:19.654Z,43.24
2019-04-23T17:52:42.041Z,43.63
2019-04-23T17:57:44.276Z,43.80
2019-04-23T18:02:59.910Z,43.93
2019-04-23T18:08:04.976Z,44.06
2019-04-23T18:23:06.621Z,44.58
2019-04-23T18:28:00.251Z,44.60
2019-04-23T18:43:35.180Z,44.88
2019-04-23T19:04:02.027Z,45.32
2019-04-23T19:09:12.175Z,45.34
2019-04-23T19:14:18.732Z,45.38
2019-04-23T19:19:24.997Z,45.53
2019-04-23T19:24:25.479Z,45.68
2019-04-23T19:29:30.619Z,45.75
2019-04-23T19:44:44.183Z,46.00
2019-04-23T19:54:52.689Z,46.25
2019-04-23T20:09:52.027Z,46.54
2019-04-23T20:14:56.524Z,46.63
2019-04-23T20:20:02.918Z,46.75
2019-04-23T20:25:20.671Z,46.90
2019-04-23T20:30:33.874Z,46.98
2019-04-23T20:35:15.829Z,47.12
2019-04-23T20:40:30.590Z,47.28
2019-04-23T20:45:33.341Z,47.49
2019-04-23T20:50:34.507Z,47.57
2019-04-23T20:55:54.670Z,47.74
2019-04-23T21:00:59.162Z,47.79
2019-04-23T21:06:06.344Z,47.99
2019-04-23T21:10:58.350Z,48.18
2019-04-23T21:16:08.971Z,48.29
2019-04-23T21:21:12.582Z,48.37
2019-04-23T21:26:09.221Z,48.55
2019-04-23T21:31:19.040Z,48.68
2019-04-23T21:46:55.366Z,48.97
2019-04-23T21:51:59.077Z,48.93
2019-04-23T21:56:47.020Z,49.13
2019-04-23T22:06:54.069Z,49.41
2019-04-23T22:12:05.296Z,49.39
2019-04-23T22:17:02.867Z,49.58
2019-04-23T22:22:05.874Z,49.71
2019-04-23T22:32:13.065Z,49.95
2019-04-23T22:37:17.838Z,50.02
2019-04-23T22:47:24.576Z,50.33
2019-04-23T22:52:48.505Z,50.39
2019-04-23T22:57:57.120Z,50.51
2019-04-23T23:03:06.508Z,50.68
2019-04-23T23:18:14.375Z,50.83
2019-04-23T23:33:27.239Z,51.10
2019-04-23T23:38:33.488Z,51.04
2019-04-23T23:48:36.950Z,51.26
2019-04-23T23:58:52.047Z,51.34
